Terminal Aerodrome Forecast
Issued by NWS Cleveland, OH

Home | Current Version | Previous Version | Graphics & Text | Print | Product List | Glossary Off
Versions: 1 2 3 4 5 6 7 8 9 10 11 12 13 14 15 16 17 18

000
FTUS41 KCLE 310500
TAFTOL
TAF
KTOL 310538Z 3106/0106 VRB03KT P6SM BKN150
     FM311400 21008KT P6SM BKN100
     FM312000 23010KT P6SM OVC070
     FM010300 23010KT P6SM OVC035=

USA.gov is the U.S. government's official web portal to all federal, state and local government web resources and services.